Time;durP1;ratioP1;P1;durP2;ratioP2;P2;SDS_P1;SDS_P2;PMS_P1;PMS_P2;Temp;Humidity;BMP_temperature;BMP_pressure;BME280_temperature;BME280_humidity;BME280_pressure;Samples;Min_cycle;Max_cycle;Signal;HPM_P1;HPM_P2
2022/02/27 00:02:00;;;;;;;7.37;3.25;;;;;;;4.26;54.85;101932.27;1661496;84;21118;-71
2022/02/27 00:04:27;;;;;;;7.37;3.25;;;;;;;4.25;54.95;101930.64;1657752;85;21063;-69
2022/02/27 00:06:54;;;;;;;8.30;3.67;;;;;;;4.25;55.06;101938.07;1657570;84;22285;-70
2022/02/27 00:09:21;;;;;;;6.37;3.30;;;;;;;4.23;55.20;101933.45;1658753;84;21559;-71
2022/02/27 00:11:48;;;;;;;9.95;3.25;;;;;;;4.20;55.31;101929.84;1657919;84;21043;-71
2022/02/27 00:14:15;;;;;;;8.38;3.45;;;;;;;4.18;55.50;101933.19;1658548;86;21098;-71
2022/02/27 00:16:44;;;;;;;8.05;3.42;;;;;;;4.13;55.61;101931.06;1658851;84;22159;-72
2022/02/27 00:19:10;;;;;;;9.43;3.58;;;;;;;4.12;55.71;101931.26;1659195;84;21062;-71
2022/02/27 00:21:37;;;;;;;8.10;3.65;;;;;;;4.09;55.79;101935.59;1660419;84;21574;-72
2022/02/27 00:24:05;;;;;;;7.12;3.35;;;;;;;4.05;55.92;101939.56;1657752;85;21170;-72
2022/02/27 00:26:33;;;;;;;8.95;3.75;;;;;;;3.98;56.04;101936.34;1658416;84;21027;-72
2022/02/27 00:29:00;;;;;;;8.25;3.22;;;;;;;3.93;56.13;101932.59;1659031;86;21998;-72
2022/02/27 00:31:28;;;;;;;8.58;3.35;;;;;;;3.88;56.22;101934.45;1659459;84;21004;-71
2022/02/27 00:33:55;;;;;;;6.75;2.95;;;;;;;3.82;56.36;101932.52;1658339;84;21146;-71
2022/02/27 00:36:23;;;;;;;8.50;3.33;;;;;;;3.75;56.50;101935.53;1655849;84;21533;-71
2022/02/27 00:38:50;;;;;;;8.65;3.60;;;;;;;3.69;56.63;101933.12;1660136;84;21237;-71
2022/02/27 00:41:17;;;;;;;8.78;3.37;;;;;;;3.64;56.77;101934.64;1658302;84;21721;-70
2022/02/27 00:43:44;;;;;;;9.13;3.45;;;;;;;3.58;56.97;101936.66;1657194;84;21035;-71
2022/02/27 00:46:10;;;;;;;6.35;3.08;;;;;;;3.53;57.12;101940.66;1658301;84;21023;-71
2022/02/27 00:48:37;;;;;;;7.47;3.40;;;;;;;3.48;57.26;101935.08;1658282;84;21048;-71
2022/02/27 00:51:04;;;;;;;8.73;3.30;;;;;;;3.43;57.43;101937.44;1657050;84;21799;-71
2022/02/27 00:53:31;;;;;;;8.68;3.33;;;;;;;3.39;57.52;101929.55;1657159;84;21162;-71
2022/02/27 00:55:58;;;;;;;9.40;4.10;;;;;;;3.38;57.61;101937.63;1657737;84;21040;-71
2022/02/27 00:58:26;;;;;;;8.73;3.75;;;;;;;3.33;57.75;101931.56;1658124;84;21071;-69
2022/02/27 01:00:53;;;;;;;11.57;4.03;;;;;;;3.30;57.81;101931.92;1657885;84;21055;-71
2022/02/27 01:03:20;;;;;;;7.37;3.47;;;;;;;3.27;57.84;101934.91;1657967;85;21273;-70
2022/02/27 01:05:48;;;;;;;8.93;4.08;;;;;;;3.24;57.91;101935.25;1657114;84;22162;-71
2022/02/27 01:08:15;;;;;;;7.53;3.90;;;;;;;3.21;57.97;101934.27;1657576;84;21131;-71
2022/02/27 01:10:43;;;;;;;9.75;3.98;;;;;;;3.16;58.04;101931.32;1658340;84;21055;-71
2022/02/27 01:13:09;;;;;;;12.28;4.80;;;;;;;3.12;58.11;101926.89;1657984;84;21093;-72
2022/02/27 01:15:36;;;;;;;9.03;3.80;;;;;;;3.08;58.17;101925.59;1658038;84;21150;-72
2022/02/27 01:18:04;;;;;;;9.50;4.30;;;;;;;3.03;58.23;101928.77;1657334;84;21147;-70
2022/02/27 01:20:32;;;;;;;10.20;4.35;;;;;;;2.99;58.31;101928.77;1659685;85;21043;-71
2022/02/27 01:22:59;;;;;;;10.13;4.47;;;;;;;2.96;58.39;101929.15;1658216;85;21172;-70
2022/02/27 01:25:27;;;;;;;10.58;4.58;;;;;;;2.91;58.44;101929.33;1657734;84;21131;-71
2022/02/27 01:27:55;;;;;;;10.85;4.62;;;;;;;2.86;58.50;101925.88;1656855;84;21149;-71
2022/02/27 01:30:25;;;;;;;9.78;4.12;;;;;;;2.82;58.53;101928.03;1658873;84;21606;-70
2022/02/27 01:32:51;;;;;;;9.30;4.50;;;;;;;2.79;58.57;101932.83;1657962;85;21121;-69
2022/02/27 01:35:18;;;;;;;11.95;5.00;;;;;;;2.71;58.64;101927.61;1658955;86;21499;-70
2022/02/27 01:37:44;;;;;;;8.35;4.67;;;;;;;2.64;58.75;101933.24;1656206;85;21086;-70
2022/02/27 01:40:11;;;;;;;9.88;4.85;;;;;;;2.58;58.92;101943.97;1659466;85;21091;-70
2022/02/27 01:42:38;;;;;;;11.33;5.15;;;;;;;2.52;59.06;101934.91;1661294;85;21819;-70
2022/02/27 01:45:06;;;;;;;12.33;5.80;;;;;;;2.48;59.23;101933.61;1660677;85;21084;-70
2022/02/27 01:47:34;;;;;;;10.55;5.35;;;;;;;2.44;59.39;101924.91;1657896;84;21042;-71
2022/02/27 01:50:00;;;;;;;12.73;6.25;;;;;;;2.42;59.53;101927.70;1658590;84;21114;-70
2022/02/27 01:52:27;;;;;;;12.30;5.83;;;;;;;2.40;59.67;101923.08;1658650;84;21022;-71
2022/02/27 01:54:55;;;;;;;13.93;6.08;;;;;;;2.39;59.79;101920.63;1660096;85;21154;-71
2022/02/27 01:57:21;;;;;;;14.45;6.50;;;;;;;2.35;59.91;101919.64;1655531;85;21335;-71
2022/02/27 01:59:48;;;;;;;12.40;5.58;;;;;;;2.34;60.00;101920.64;1652982;86;21646;-71
2022/02/27 02:02:15;;;;;;;14.63;6.17;;;;;;;2.32;60.12;101920.48;1658986;84;21055;-70
2022/02/27 02:04:44;;;;;;;11.68;5.58;;;;;;;2.30;60.22;101923.30;1657956;84;22601;-70
2022/02/27 02:07:12;;;;;;;10.08;4.67;;;;;;;2.28;60.28;101917.36;1657885;84;21123;-70
2022/02/27 02:09:39;;;;;;;13.65;5.35;;;;;;;2.27;60.37;101920.99;1657272;84;21134;-70
2022/02/27 02:12:08;;;;;;;12.47;4.70;;;;;;;2.26;60.42;101923.78;1657649;84;21077;-70
2022/02/27 02:14:35;;;;;;;10.65;4.65;;;;;;;2.25;60.48;101921.64;1659195;84;21000;-71
2022/02/27 02:17:03;;;;;;;9.18;4.80;;;;;;;2.21;60.60;101917.70;1657585;84;21086;-70
2022/02/27 02:19:30;;;;;;;11.83;5.20;;;;;;;2.16;60.91;101924.46;1638038;85;21561;-70
2022/02/27 02:22:00;;;;;;;12.73;5.03;;;;;;;2.11;61.13;101929.75;1658892;84;20983;-69
2022/02/27 02:24:27;;;;;;;12.93;5.05;;;;;;;2.08;61.33;101922.17;1627086;86;20995;-70
2022/02/27 02:26:54;;;;;;;9.73;4.70;;;;;;;2.04;61.57;101926.61;1638465;85;21763;-70
2022/02/27 02:29:46;;;;;;;10.72;4.80;;;;;;;2.00;61.80;101922.17;1658753;84;21177;-69
2022/02/27 02:32:13;;;;;;;13.48;4.67;;;;;;;1.95;62.10;101925.00;1657811;85;21133;-70
2022/02/27 02:34:41;;;;;;;10.60;4.90;;;;;;;1.88;62.46;101930.93;1662778;85;21608;-70
2022/02/27 02:37:11;;;;;;;12.05;5.35;;;;;;;1.84;62.65;101926.14;1658312;85;21003;-69
2022/02/27 02:39:40;;;;;;;12.82;5.20;;;;;;;1.85;62.81;101933.08;1659429;84;21067;-70
2022/02/27 02:42:08;;;;;;;15.65;6.25;;;;;;;1.85;63.04;101935.70;1658168;84;21011;-70
2022/02/27 02:44:39;;;;;;;12.20;5.80;;;;;;;1.87;63.30;101929.77;1657802;84;21191;-70
2022/02/27 02:47:05;;;;;;;12.70;5.90;;;;;;;1.89;63.48;101938.33;1658273;84;21023;-69
2022/02/27 02:49:32;;;;;;;12.10;5.72;;;;;;;1.92;63.75;101938.00;1660067;84;21114;-70
2022/02/27 02:52:00;;;;;;;10.03;5.30;;;;;;;1.95;63.97;101936.36;1624641;86;21648;-70
2022/02/27 02:54:28;;;;;;;11.55;5.17;;;;;;;1.93;64.36;101938.83;1657120;84;21585;-70
2022/02/27 02:56:56;;;;;;;14.47;5.55;;;;;;;1.88;64.63;101936.20;1659148;85;21301;-71
2022/02/27 02:59:24;;;;;;;9.80;5.70;;;;;;;1.84;64.86;101937.99;1658158;84;21492;-70
2022/02/27 03:01:51;;;;;;;12.43;6.37;;;;;;;1.86;65.03;101939.48;1658146;84;21505;-70
2022/02/27 03:04:18;;;;;;;12.13;6.05;;;;;;;1.92;65.13;101939.33;1657452;85;21047;-69
2022/02/27 03:06:45;;;;;;;13.58;6.30;;;;;;;1.98;65.16;101937.34;1660158;84;21087;-70
2022/02/27 03:09:12;;;;;;;14.30;6.50;;;;;;;2.04;65.18;101941.95;1659040;85;21127;-70
2022/02/27 03:11:39;;;;;;;12.73;5.90;;;;;;;2.10;65.12;101945.21;1660154;84;21067;-71
2022/02/27 03:14:07;;;;;;;14.58;6.60;;;;;;;2.15;65.05;101944.73;1627385;87;21093;-70
2022/02/27 03:16:34;;;;;;;15.15;6.55;;;;;;;2.21;64.96;101946.70;1605028;87;21087;-70
2022/02/27 03:19:01;;;;;;;11.05;5.92;;;;;;;2.26;64.84;101950.14;1638895;85;21091;-70
2022/02/27 03:21:30;;;;;;;11.68;5.78;;;;;;;2.30;64.65;101950.12;1658637;84;21517;-71
2022/02/27 03:23:56;;;;;;;12.47;6.22;;;;;;;2.34;64.50;101952.78;1659334;84;21113;-70
2022/02/27 03:26:23;;;;;;;12.28;5.80;;;;;;;2.36;64.38;101954.73;1658042;84;21501;-70
2022/02/27 03:28:50;;;;;;;13.45;6.12;;;;;;;2.41;64.24;101961.66;1658889;84;21143;-70
2022/02/27 03:31:19;;;;;;;13.00;6.22;;;;;;;2.44;64.14;101956.05;1654928;85;21115;-70
2022/02/27 03:33:45;;;;;;;13.48;6.00;;;;;;;2.47;63.98;101962.30;1658943;85;21125;-69
2022/02/27 03:36:13;;;;;;;11.38;5.80;;;;;;;2.50;63.86;101959.34;1657912;84;21075;-69
2022/02/27 03:38:40;;;;;;;12.75;5.85;;;;;;;2.54;63.73;101961.95;1658841;85;21549;-70
2022/02/27 03:41:07;;;;;;;12.65;6.60;;;;;;;2.57;63.60;101962.12;1658897;84;21635;-69
2022/02/27 03:43:34;;;;;;;12.78;6.50;;;;;;;2.60;63.49;101964.42;1659490;84;21098;-70
2022/02/27 03:46:00;;;;;;;12.93;6.55;;;;;;;2.61;63.37;101969.19;1657766;84;21525;-69
2022/02/27 03:48:27;;;;;;;14.25;6.55;;;;;;;2.62;63.27;101970.83;1658601;85;21458;-68
2022/02/27 03:50:54;;;;;;;15.50;7.10;;;;;;;2.64;63.22;101968.86;1659933;85;21663;-70
2022/02/27 03:53:22;;;;;;;15.93;8.10;;;;;;;2.65;63.14;101974.45;1655112;85;21111;-69
2022/02/27 03:55:49;;;;;;;14.70;7.72;;;;;;;2.65;63.04;101971.81;1656923;85;21105;-70
2022/02/27 03:58:16;;;;;;;16.15;7.80;;;;;;;2.66;62.99;101972.13;1660048;85;21559;-71
2022/02/27 04:00:42;;;;;;;15.70;8.45;;;;;;;2.67;62.98;101981.20;1658811;85;21526;-71
2022/02/27 04:03:10;;;;;;;14.65;7.90;;;;;;;2.69;63.01;101979.70;1629655;86;21129;-71
2022/02/27 04:05:37;;;;;;;17.23;8.10;;;;;;;2.69;63.05;101980.52;1656703;84;21070;-70
2022/02/27 04:08:04;;;;;;;16.87;9.08;;;;;;;2.70;63.08;101978.70;1658361;85;21593;-70
2022/02/27 04:10:31;;;;;;;18.07;9.25;;;;;;;2.69;63.11;101980.52;1658841;84;21559;-69
2022/02/27 04:12:59;;;;;;;17.52;8.95;;;;;;;2.71;63.15;101986.46;1658751;84;21076;-71
2022/02/27 04:15:28;;;;;;;16.80;8.90;;;;;;;2.73;63.17;101991.55;1658229;84;21770;-70
2022/02/27 04:17:55;;;;;;;17.62;8.63;;;;;;;2.75;63.25;101988.27;1658906;84;21099;-69
2022/02/27 04:20:22;;;;;;;13.70;8.08;;;;;;;2.78;63.37;101993.20;1658053;84;22372;-70
2022/02/27 04:22:49;;;;;;;15.70;7.83;;;;;;;2.80;63.45;101989.91;1659028;85;21164;-70
2022/02/27 04:25:17;;;;;;;13.43;7.12;;;;;;;2.85;63.51;101993.34;1657832;84;21051;-71
2022/02/27 04:27:43;;;;;;;17.48;8.33;;;;;;;2.86;63.59;101998.44;1657348;84;21127;-70
2022/02/27 04:30:10;;;;;;;17.20;8.18;;;;;;;2.91;63.64;102002.72;1655181;84;21086;-72
2022/02/27 04:32:37;;;;;;;19.40;8.90;;;;;;;2.92;63.61;102003.04;1658857;84;21613;-69
2022/02/27 04:35:06;;;;;;;14.53;8.20;;;;;;;2.91;63.64;102004.04;1657024;84;21094;-71
2022/02/27 04:37:33;;;;;;;18.27;9.78;;;;;;;2.91;63.64;102007.18;1659913;85;21106;-71
2022/02/27 04:40:00;;;;;;;20.88;11.30;;;;;;;2.90;63.68;102010.32;1659243;85;21060;-71
2022/02/27 04:42:26;;;;;;;23.07;11.85;;;;;;;2.91;63.69;102014.59;1659591;84;21487;-71
2022/02/27 04:44:53;;;;;;;23.02;11.25;;;;;;;2.95;63.65;102013.76;1659060;84;21122;-70
2022/02/27 04:47:20;;;;;;;20.55;10.35;;;;;;;2.97;63.63;102013.10;1626472;86;21542;-70
2022/02/27 04:49:48;;;;;;;19.30;9.80;;;;;;;3.00;63.60;102015.41;1655126;84;21083;-71
2022/02/27 04:52:16;;;;;;;17.52;8.40;;;;;;;3.02;63.59;102016.03;1655961;84;21577;-71
2022/02/27 04:54:43;;;;;;;15.68;8.30;;;;;;;3.04;63.62;102018.02;1654363;84;22632;-71
2022/02/27 04:57:11;;;;;;;15.10;7.08;;;;;;;3.10;63.62;102018.66;1656259;84;21208;-71
2022/02/27 04:59:38;;;;;;;19.90;7.97;;;;;;;3.12;63.58;102010.05;1658747;84;21111;-70
2022/02/27 05:02:05;;;;;;;13.88;7.90;;;;;;;3.14;63.61;102017.81;1658129;84;21541;-70
2022/02/27 05:04:34;;;;;;;14.18;7.15;;;;;;;3.16;63.69;102024.58;1660049;85;21102;-69
2022/02/27 05:07:03;;;;;;;15.72;7.65;;;;;;;3.21;63.67;102014.81;1658688;84;21079;-69
2022/02/27 05:09:32;;;;;;;15.35;7.92;;;;;;;3.22;63.67;102023.05;1657930;84;21150;-72
2022/02/27 05:11:59;;;;;;;12.40;6.83;;;;;;;3.24;63.72;102018.42;1658546;85;21849;-70
2022/02/27 05:14:25;;;;;;;14.23;7.28;;;;;;;3.26;63.78;102019.09;1659663;84;21058;-69
2022/02/27 05:16:54;;;;;;;12.98;7.30;;;;;;;3.26;63.84;102017.77;1659796;85;21032;-70
2022/02/27 05:19:22;;;;;;;12.40;5.60;;;;;;;3.27;63.87;102018.90;1658343;85;21585;-70
2022/02/27 05:21:49;;;;;;;9.78;5.03;;;;;;;3.29;63.83;102016.08;1655855;84;37234;-70
2022/02/27 05:24:18;;;;;;;11.12;5.67;;;;;;;3.31;63.67;102016.73;1657781;84;21147;-69
2022/02/27 05:26:45;;;;;;;9.45;5.30;;;;;;;3.33;63.54;102017.90;1657665;84;21036;-70
2022/02/27 05:29:13;;;;;;;10.72;5.08;;;;;;;3.34;63.51;102021.67;1656433;84;21150;-69
2022/02/27 05:31:40;;;;;;;9.98;5.00;;;;;;;3.36;63.41;102021.52;1659947;84;21075;-69
2022/02/27 05:34:08;;;;;;;8.25;4.53;;;;;;;3.36;63.37;102019.70;1657578;84;21059;-70
2022/02/27 05:36:35;;;;;;;7.92;4.45;;;;;;;3.39;63.29;102029.06;1657786;84;21558;-70
2022/02/27 05:39:03;;;;;;;9.45;4.45;;;;;;;3.45;63.10;102021.27;1656974;84;21067;-70
2022/02/27 05:41:32;;;;;;;11.60;4.70;;;;;;;3.49;62.97;102026.55;1672588;84;21055;-70
2022/02/27 05:43:58;;;;;;;11.08;4.85;;;;;;;3.53;62.90;102029.16;1658399;84;21004;-70
2022/02/27 05:46:25;;;;;;;9.50;4.47;;;;;;;3.59;62.85;102030.80;1656052;84;21173;-70
2022/02/27 05:48:52;;;;;;;8.25;4.40;;;;;;;3.63;62.77;102029.45;1657398;84;21506;-71
2022/02/27 05:51:20;;;;;;;9.33;4.20;;;;;;;3.68;62.69;102024.44;1660647;84;21522;-70
2022/02/27 05:53:47;;;;;;;9.98;4.65;;;;;;;3.74;62.57;102026.39;1657696;84;21398;-70
2022/02/27 05:56:14;;;;;;;7.62;4.10;;;;;;;3.83;62.40;102028.48;1657586;84;21091;-70
2022/02/27 05:58:43;;;;;;;8.00;4.15;;;;;;;3.90;62.23;102029.42;1654865;84;21076;-70
2022/02/27 06:01:10;;;;;;;7.47;4.10;;;;;;;3.93;62.02;102031.21;1656540;84;21130;-70
2022/02/27 06:03:37;;;;;;;8.65;4.10;;;;;;;3.97;61.87;102031.17;1656488;84;21062;-70
2022/02/27 06:06:04;;;;;;;9.65;4.58;;;;;;;4.01;61.70;102030.31;1657588;85;21039;-70
2022/02/27 06:08:31;;;;;;;9.23;3.95;;;;;;;4.06;61.58;102036.41;1658920;84;21035;-70
2022/02/27 06:10:58;;;;;;;9.33;4.47;;;;;;;4.11;61.38;102034.05;1650641;85;21175;-69
2022/02/27 06:13:24;;;;;;;11.18;4.90;;;;;;;4.15;61.27;102030.88;1660759;84;21141;-70
2022/02/27 06:15:52;;;;;;;9.35;4.65;;;;;;;4.22;61.12;102029.67;1664603;84;21189;-70
2022/02/27 06:18:19;;;;;;;9.10;4.42;;;;;;;4.29;60.97;102033.23;1682475;84;21031;-70
2022/02/27 06:20:46;;;;;;;10.13;4.42;;;;;;;4.36;60.73;102035.48;1660988;85;21083;-70
2022/02/27 06:23:13;;;;;;;9.05;4.97;;;;;;;4.39;60.56;102032.48;1657936;85;20991;-70
2022/02/27 06:25:39;;;;;;;9.63;4.80;;;;;;;4.45;60.45;102038.38;1662866;85;21662;-70
2022/02/27 06:28:06;;;;;;;7.85;4.35;;;;;;;4.54;60.31;102040.94;1661912;86;21519;-70
2022/02/27 06:30:33;;;;;;;10.78;4.53;;;;;;;4.59;60.04;102037.26;1657798;85;21062;-70
2022/02/27 06:33:01;;;;;;;9.73;4.70;;;;;;;4.64;59.88;102038.84;1646928;85;22301;-70
2022/02/27 06:35:28;;;;;;;7.78;4.15;;;;;;;4.69;59.85;102037.81;1657904;84;21055;-69
2022/02/27 06:37:55;;;;;;;9.43;4.78;;;;;;;4.75;59.68;102038.42;1657770;84;21497;-68
2022/02/27 06:40:22;;;;;;;10.40;4.58;;;;;;;4.81;59.41;102039.52;1657783;84;21119;-70
2022/02/27 06:42:49;;;;;;;8.90;4.60;;;;;;;4.86;59.27;102033.16;1657891;84;20992;-71
2022/02/27 06:45:16;;;;;;;9.00;4.33;;;;;;;4.92;59.06;102036.41;1657847;84;21094;-70
2022/02/27 06:47:43;;;;;;;7.00;3.52;;;;;;;4.97;58.86;102035.37;1658998;85;21027;-71
2022/02/27 06:50:11;;;;;;;7.00;3.58;;;;;;;5.02;58.60;102032.97;1657865;85;21943;-71
2022/02/27 06:52:39;;;;;;;9.53;3.87;;;;;;;5.06;58.20;102039.54;1646756;84;21154;-71
2022/02/27 06:55:07;;;;;;;8.63;4.03;;;;;;;5.09;58.05;102041.00;1658556;84;21119;-71
2022/02/27 06:57:34;;;;;;;8.45;3.75;;;;;;;5.11;57.90;102046.95;1659192;84;21023;-71
2022/02/27 07:00:01;;;;;;;8.88;4.05;;;;;;;5.16;57.83;102044.05;1658405;84;21471;-71
2022/02/27 07:02:28;;;;;;;7.15;3.80;;;;;;;5.23;57.83;102044.64;1657975;84;21073;-71
2022/02/27 07:04:55;;;;;;;10.13;4.65;;;;;;;5.29;57.65;102046.05;1656462;84;20994;-70
2022/02/27 07:07:22;;;;;;;9.98;4.03;;;;;;;5.34;57.44;102046.83;1659588;84;21054;-70
2022/02/27 07:09:50;;;;;;;9.28;4.20;;;;;;;5.37;56.93;102049.11;1658177;84;21110;-69
2022/02/27 07:12:17;;;;;;;7.95;4.05;;;;;;;5.37;56.73;102046.47;1660215;85;21170;-70
2022/02/27 07:14:44;;;;;;;9.35;5.35;;;;;;;5.41;56.65;102042.43;1658219;85;21783;-70
2022/02/27 07:17:12;;;;;;;10.23;5.40;;;;;;;5.45;56.16;102041.04;1653713;84;21720;-70
2022/02/27 07:19:39;;;;;;;10.23;4.87;;;;;;;5.50;55.68;102041.83;1657344;84;21044;-70
2022/02/27 07:22:06;;;;;;;9.40;4.95;;;;;;;5.52;55.20;102044.58;1657536;84;21141;-71
2022/02/27 07:24:35;;;;;;;10.10;5.03;;;;;;;5.53;54.92;102042.78;1658670;86;21075;-71
2022/02/27 07:27:01;;;;;;;9.55;5.33;;;;;;;5.56;54.77;102046.35;1657311;85;21513;-71
2022/02/27 07:29:31;;;;;;;9.53;4.83;;;;;;;5.58;54.42;102037.72;1656041;84;21070;-72
2022/02/27 07:31:58;;;;;;;10.60;5.40;;;;;;;5.64;54.24;102040.95;1658750;86;21094;-71
2022/02/27 07:34:25;;;;;;;12.37;5.55;;;;;;;5.70;53.67;102038.06;1665953;85;21640;-70
2022/02/27 07:36:54;;;;;;;10.20;5.17;;;;;;;5.75;53.45;102043.09;1660291;84;21302;-69
2022/02/27 07:39:21;;;;;;;9.35;4.90;;;;;;;5.80;52.96;102040.72;1654693;85;21602;-70
2022/02/27 07:41:51;;;;;;;7.70;4.37;;;;;;;5.85;52.62;102043.61;1662601;85;21109;-70
2022/02/27 07:44:18;;;;;;;9.13;4.92;;;;;;;5.94;52.34;102040.88;1661706;86;21636;-71
2022/02/27 07:46:47;;;;;;;9.00;4.53;;;;;;;6.00;51.58;102039.61;1668819;85;21023;-72
2022/02/27 07:49:14;;;;;;;12.75;5.00;;;;;;;6.03;51.13;102037.09;1662124;85;21118;-71
2022/02/27 07:51:41;;;;;;;11.12;4.40;;;;;;;6.06;50.88;102037.53;1663256;84;21133;-71
2022/02/27 07:54:08;;;;;;;8.95;4.22;;;;;;;6.13;50.41;102042.08;1652516;84;21122;-70
2022/02/27 07:56:37;;;;;;;9.55;4.37;;;;;;;6.18;50.26;102035.67;1657118;85;21075;-71
2022/02/27 07:59:03;;;;;;;10.32;5.30;;;;;;;6.24;49.65;102042.88;1653337;85;21134;-71
2022/02/27 08:01:31;;;;;;;8.95;4.70;;;;;;;6.28;49.46;102045.45;1644253;85;21157;-71
2022/02/27 08:03:58;;;;;;;7.25;3.83;;;;;;;6.32;49.00;102040.91;1662611;85;21108;-72
2022/02/27 08:06:25;;;;;;;8.70;4.25;;;;;;;6.35;48.77;102038.39;1676835;85;21225;-71
2022/02/27 08:08:53;;;;;;;9.33;4.40;;;;;;;6.38;48.91;102035.83;1657890;84;21141;-71
2022/02/27 08:11:20;;;;;;;9.40;4.55;;;;;;;6.46;48.78;102038.36;1656345;84;21589;-71
2022/02/27 08:13:46;;;;;;;9.83;4.37;;;;;;;6.57;48.38;102041.80;1655103;84;21266;-72
2022/02/27 08:16:13;;;;;;;9.55;4.45;;;;;;;6.63;47.96;102041.53;1657086;84;21484;-73
2022/02/27 08:18:42;;;;;;;6.60;3.50;;;;;;;6.71;47.85;102042.22;1658557;84;21072;-71
2022/02/27 08:21:08;;;;;;;7.80;3.80;;;;;;;6.76;46.92;102034.47;1655164;84;21203;-71
2022/02/27 08:23:35;;;;;;;8.40;3.75;;;;;;;6.77;46.77;102033.44;1649653;85;21614;-71
2022/02/27 08:26:04;;;;;;;6.92;3.75;;;;;;;6.80;46.64;102033.05;1658074;84;21146;-72
2022/02/27 08:28:31;;;;;;;7.70;3.98;;;;;;;6.85;46.21;102029.02;1623309;87;21557;-75
2022/02/27 08:30:59;;;;;;;8.65;4.20;;;;;;;6.90;45.68;102034.03;1605084;88;21070;-77
2022/02/27 08:33:26;;;;;;;8.85;4.25;;;;;;;6.94;45.70;102029.99;1626336;86;21022;-77
2022/02/27 08:35:55;;;;;;;7.22;3.90;;;;;;;7.02;45.77;102035.64;1658461;84;21778;-77
2022/02/27 08:38:23;;;;;;;6.25;2.80;;;;;;;7.09;45.62;102029.03;1655848;85;21092;-76
2022/02/27 08:40:51;;;;;;;6.85;2.87;;;;;;;7.12;44.11;102032.11;1656944;84;22342;-76
2022/02/27 08:43:18;;;;;;;4.80;2.52;;;;;;;7.16;44.25;102032.02;1657766;84;21104;-74
2022/02/27 08:45:44;;;;;;;5.58;2.67;;;;;;;7.25;43.71;102032.16;1656317;84;21082;-73
2022/02/27 08:48:13;;;;;;;5.15;2.05;;;;;;;7.29;42.92;102026.75;1655002;84;21095;-73
2022/02/27 08:50:41;;;;;;;5.05;2.60;;;;;;;7.24;42.29;102026.55;1657038;84;21115;-75
2022/02/27 08:53:08;;;;;;;5.90;2.55;;;;;;;7.23;42.12;102020.90;1656738;84;22273;-73
2022/02/27 08:55:35;;;;;;;5.12;2.12;;;;;;;7.23;42.30;102024.88;1657678;84;21148;-73
2022/02/27 08:58:04;;;;;;;5.45;2.37;;;;;;;7.25;41.83;102021.53;1657707;85;21728;-74
2022/02/27 09:00:31;;;;;;;6.03;2.42;;;;;;;7.26;41.63;102020.50;1655749;84;21081;-75
2022/02/27 09:02:58;;;;;;;5.55;2.33;;;;;;;7.32;41.79;102022.88;1657715;84;21601;-72
2022/02/27 09:05:25;;;;;;;4.22;2.12;;;;;;;7.40;41.55;102008.58;1658589;84;21138;-71
2022/02/27 09:07:53;;;;;;;4.72;2.35;;;;;;;7.43;41.08;102010.33;1654241;84;21111;-74
2022/02/27 09:10:20;;;;;;;4.97;2.27;;;;;;;7.52;40.72;102012.31;1658178;84;21059;-73
2022/02/27 09:12:49;;;;;;;4.00;1.80;;;;;;;7.67;40.73;102006.31;1658997;84;22241;-72
2022/02/27 09:15:16;;;;;;;3.52;1.50;;;;;;;7.87;39.69;102004.20;1657620;85;21039;-73
2022/02/27 09:17:45;;;;;;;2.65;1.00;;;;;;;8.02;39.01;102004.80;1657705;84;22754;-71
2022/02/27 09:20:14;;;;;;;3.05;1.00;;;;;;;8.11;37.73;101998.78;1659299;84;21078;-70
2022/02/27 09:22:43;;;;;;;2.17;1.00;;;;;;;8.27;37.60;102001.02;1659024;84;21632;-72
2022/02/27 09:25:11;;;;;;;2.02;1.10;;;;;;;8.42;36.91;102000.34;1657880;85;21049;-71
2022/02/27 09:27:39;;;;;;;2.13;1.00;;;;;;;8.49;36.31;102006.14;1416398;84;10000776;-74
2022/02/27 09:30:07;;;;;;;2.45;1.12;;;;;;;8.40;36.40;102005.55;1627365;85;21059;-71
2022/02/27 09:32:35;;;;;;;2.75;1.10;;;;;;;8.27;36.50;102003.69;1649123;85;21086;-70
2022/02/27 09:35:03;;;;;;;5.83;1.25;;;;;;;8.16;37.00;101998.48;1640231;86;21977;-71
2022/02/27 09:37:32;;;;;;;3.83;1.65;;;;;;;8.11;37.41;101996.94;1643614;86;21083;-70
2022/02/27 09:40:02;;;;;;;2.00;0.98;;;;;;;8.13;37.43;101998.08;1658317;85;21082;-71
2022/02/27 09:42:31;;;;;;;4.30;1.30;;;;;;;8.15;37.07;101989.35;1649184;85;21125;-70
2022/02/27 09:44:58;;;;;;;2.90;1.10;;;;;;;8.16;37.19;101990.98;1646521;85;21103;-71
2022/02/27 09:47:27;;;;;;;3.87;1.20;;;;;;;8.22;36.53;101987.50;1646747;85;21907;-78
2022/02/27 09:49:55;;;;;;;3.40;1.10;;;;;;;8.23;36.06;101996.63;1652193;85;21129;-74
2022/02/27 09:52:24;;;;;;;4.58;1.22;;;;;;;8.29;35.21;101991.48;1650498;85;21104;-76
2022/02/27 09:54:51;;;;;;;2.55;1.20;;;;;;;8.30;34.95;101993.15;1653401;85;21186;-79
2022/02/27 09:57:20;;;;;;;3.45;1.50;;;;;;;8.32;35.09;101988.41;1652177;85;21164;-75
2022/02/27 09:59:47;;;;;;;3.37;1.30;;;;;;;8.28;35.93;101989.34;1655137;84;21098;-75
2022/02/27 10:02:15;;;;;;;2.95;1.27;;;;;;;8.22;36.21;101986.98;1655666;84;21497;-73
2022/02/27 10:04:44;;;;;;;2.65;1.20;;;;;;;8.24;35.78;101985.47;1653065;84;21117;-72
2022/02/27 10:07:18;;;;;;;2.15;1.10;;;;;;;8.25;35.46;101988.94;1656487;84;21079;-71
2022/02/27 10:09:46;;;;;;;3.60;1.30;;;;;;;8.20;35.20;101989.05;1657478;84;21094;-70
2022/02/27 10:12:23;;;;;;;3.12;1.20;;;;;;;8.18;34.91;101984.44;1654229;84;21100;-71
2022/02/27 10:15:03;;;;;;;2.05;0.95;;;;;;;8.16;35.43;101977.67;1649938;85;21755;-71
2022/02/27 10:17:33;;;;;;;3.10;1.00;;;;;;;8.20;35.57;101977.08;1644428;85;21125;-71
2022/02/27 10:20:01;;;;;;;2.35;1.00;;;;;;;8.31;35.63;101976.14;1656851;84;21069;-71
2022/02/27 10:22:38;;;;;;;2.87;1.27;;;;;;;8.34;35.21;101971.73;1639412;85;21129;-71
2022/02/27 10:25:21;;;;;;;3.05;1.10;;;;;;;8.33;35.21;101978.91;1659461;85;21149;-71
2022/02/27 10:27:53;;;;;;;;;;;;;;;8.27;35.21;101973.08;1657233;84;21117;-71
2022/02/27 10:30:25;;;;;;;2.87;1.10;;;;;;;8.17;35.08;101973.49;1657962;84;20216;-71
2022/02/27 10:32:59;;;;;;;2.45;1.20;;;;;;;8.09;35.26;101975.53;1657577;85;21033;-72
2022/02/27 10:35:50;;;;;;;2.65;1.10;;;;;;;8.05;34.92;101975.64;1656429;84;21180;-71
2022/02/27 10:38:44;;;;;;;3.17;1.20;;;;;;;7.99;35.13;101967.96;1651702;85;21474;-71
2022/02/27 10:41:14;;;;;;;2.90;1.20;;;;;;;8.04;35.39;101969.51;1658135;84;21508;-71
2022/02/27 10:43:44;;;;;;;3.20;1.17;;;;;;;8.12;35.00;101970.61;1656669;84;21062;-82
2022/02/27 10:46:12;;;;;;;2.65;0.90;;;;;;;8.22;34.92;101974.19;1657453;85;21550;-71
2022/02/27 10:48:39;;;;;;;2.90;1.20;;;;;;;8.36;34.46;101969.18;1658782;84;21123;-71
2022/02/27 10:51:12;;;;;;;3.08;0.95;;;;;;;8.44;33.93;101964.98;1657219;84;21726;-71
2022/02/27 10:53:41;;;;;;;2.33;0.90;;;;;;;8.48;34.14;101973.37;1657203;84;21122;-72
2022/02/27 10:56:10;;;;;;;2.75;1.00;;;;;;;8.52;34.20;101967.92;1657464;85;21031;-70
2022/02/27 10:58:44;;;;;;;2.95;1.07;;;;;;;8.56;33.89;101962.51;1657692;84;21098;-73
2022/02/27 11:01:21;;;;;;;2.83;1.02;;;;;;;8.62;34.23;101964.83;1656815;84;21058;-70
2022/02/27 11:03:49;;;;;;;2.52;1.10;;;;;;;8.72;34.31;101961.73;1657434;84;21148;-70
2022/02/27 11:06:17;;;;;;;2.83;0.90;;;;;;;8.77;34.56;101957.94;1654140;84;21153;-71
2022/02/27 11:08:45;;;;;;;2.17;1.00;;;;;;;8.77;34.07;101951.27;1652665;84;21074;-71
2022/02/27 11:11:13;;;;;;;3.12;1.00;;;;;;;8.72;34.10;101956.40;1656933;84;21094;-70
2022/02/27 11:13:43;;;;;;;2.83;1.00;;;;;;;8.64;33.94;101951.61;1657050;85;21563;-72
2022/02/27 11:16:11;;;;;;;2.35;0.90;;;;;;;8.63;34.30;101951.32;1659016;84;21698;-73
2022/02/27 11:18:39;;;;;;;1.95;0.90;;;;;;;8.64;34.08;101944.14;1659683;84;21129;-73
2022/02/27 11:21:06;;;;;;;2.72;0.93;;;;;;;8.66;34.11;101944.77;1658750;85;21161;-70
2022/02/27 11:23:34;;;;;;;2.40;1.05;;;;;;;8.69;33.92;101943.83;1660401;84;21104;-72
2022/02/27 11:26:03;;;;;;;2.70;0.90;;;;;;;8.70;34.09;101951.30;1660043;83;21628;-77
2022/02/27 11:28:30;;;;;;;2.67;0.88;;;;;;;8.71;34.32;101951.59;1625435;86;21719;-70
2022/02/27 11:31:02;;;;;;;1.85;0.80;;;;;;;8.75;34.07;101957.31;1624275;86;21193;-72
2022/02/27 11:33:29;;;;;;;3.95;1.00;;;;;;;8.74;33.61;101949.03;1625379;86;21126;-73